Time;durP1;ratioP1;P1;durP2;ratioP2;P2;SDS_P1;SDS_P2;PMS_P1;PMS_P2;Temp;Humidity;BMP_temperature;BMP_pressure;BME280_temperature;BME280_humidity;BME280_pressure;Samples;Min_cycle;Max_cycle;Signal;HPM_P1;HPM_P2
2023/10/07 00:00:59;;;;;;;5.60;2.43;;;18.20;99.90;;;;;;6146655;23;20196;-92
2023/10/07 00:03:25;;;;;;;4.80;2.03;;;18.10;99.90;;;;;;6147016;23;20153;-91
2023/10/07 00:06:00;;;;;;;11.53;2.10;;;18.10;99.90;;;;;;6122633;23;20215;-92
2023/10/07 00:08:27;;;;;;;4.20;2.57;;;18.00;99.90;;;;;;6146410;23;20238;-91
2023/10/07 00:10:54;;;;;;;7.13;3.23;;;18.00;99.90;;;;;;6122060;23;20200;-91
2023/10/07 00:13:20;;;;;;;4.77;2.07;;;18.10;99.90;;;;;;6122765;23;20216;-91
2023/10/07 00:15:48;;;;;;;8.90;2.03;;;18.10;99.90;;;;;;6120971;23;20192;-91
2023/10/07 00:18:16;;;;;;;1.83;1.37;;;18.10;99.90;;;;;;6122177;23;20310;-92
2023/10/07 00:20:56;;;;;;;3.27;1.10;;;18.10;99.90;;;;;;6122591;23;20184;-92
2023/10/07 00:23:26;;;;;;;2.60;1.33;;;18.10;99.90;;;;;;6146506;23;20615;-92
2023/10/07 00:25:53;;;;;;;3.10;2.00;;;18.00;99.90;;;;;;6122054;23;20259;-91
2023/10/07 00:28:32;;;;;;;6.13;1.87;;;18.00;99.90;;;;;;6122947;23;20219;-91
2023/10/07 00:31:05;;;;;;;4.90;1.70;;;18.00;99.90;;;;;;6122691;23;20198;-91
2023/10/07 00:34:02;;;;;;;1.20;1.13;;;18.00;99.90;;;;;;6146881;23;20588;-91
2023/10/07 00:39:01;;;;;;;3.13;1.53;;;18.00;99.90;;;;;;6122838;23;20156;-91
2023/10/07 00:41:31;;;;;;;6.27;2.20;;;18.00;99.90;;;;;;6120912;23;20200;-91
2023/10/07 00:43:59;;;;;;;7.13;1.87;;;18.00;99.90;;;;;;6121143;23;20199;-91
2023/10/07 00:46:34;;;;;;;3.40;2.57;;;18.00;99.90;;;;;;6122413;23;20212;-92
2023/10/07 00:49:09;;;;;;;8.90;1.50;;;18.00;99.90;;;;;;6123900;23;20902;-92
2023/10/07 00:51:42;;;;;;;4.03;1.37;;;18.10;99.90;;;;;;6123537;23;20366;-91
2023/10/07 00:54:23;;;;;;;1.83;1.50;;;18.10;99.90;;;;;;6146977;23;20152;-92
2023/10/07 00:57:04;;;;;;;1.53;1.33;;;18.10;99.90;;;;;;6124431;23;20539;-91
2023/10/07 00:59:30;;;;;;;5.33;1.60;;;18.10;99.90;;;;;;6123358;23;20282;-92
2023/10/07 01:01:57;;;;;;;2.80;2.13;;;18.10;99.90;;;;;;6120464;23;20196;-92
2023/10/07 01:04:24;;;;;;;0.77;0.77;;;18.10;99.90;;;;;;6121983;23;20231;-92
2023/10/07 01:07:03;;;;;;;2.57;1.67;;;18.10;99.90;;;;;;6122444;23;20207;-92
2023/10/07 01:09:29;;;;;;;6.47;1.60;;;18.10;99.90;;;;;;6124918;23;20251;-92
2023/10/07 01:11:57;;;;;;;4.80;1.23;;;18.10;99.90;;;;;;6122328;23;20200;-92
2023/10/07 01:14:26;;;;;;;9.37;1.57;;;18.10;99.90;;;;;;6123110;23;20203;-92
2023/10/07 01:16:53;;;;;;;6.40;1.47;;;18.10;99.90;;;;;;6121678;23;20547;-91
2023/10/07 01:19:27;;;;;;;4.57;1.40;;;18.20;99.90;;;;;;6120863;23;20215;-92
2023/10/07 01:21:55;;;;;;;8.97;2.30;;;18.10;99.90;;;;;;6097788;23;20205;-91
2023/10/07 01:24:44;;;;;;;3.40;1.47;;;18.20;99.90;;;;;;6121526;23;20206;-91
2023/10/07 01:27:41;;;;;;;6.77;1.27;;;18.20;99.90;;;;;;6146181;23;20183;-91
2023/10/07 01:30:00;;;;;;;3.07;1.67;;;18.10;99.90;;;;;;6118870;23;20524;-91
2023/10/07 01:32:32;;;;;;;6.60;2.23;;;18.10;99.90;;;;;;6122218;23;20200;-91
2023/10/07 01:35:04;;;;;;;4.70;2.07;;;18.20;99.90;;;;;;6122572;23;20200;-92
2023/10/07 01:37:41;;;;;;;3.43;1.37;;;18.10;99.90;;;;;;6122775;23;20633;-92
2023/10/07 01:40:16;;;;;;;5.80;1.93;;;18.10;99.90;;;;;;6123992;23;20206;-92
2023/10/07 01:42:46;;;;;;;9.10;1.70;;;18.20;99.90;;;;;;6122928;23;20636;-90
2023/10/07 01:45:21;;;;;;;1.10;0.80;;;18.20;99.90;;;;;;6121980;23;20164;-91
2023/10/07 01:47:48;;;;;;;1.90;1.37;;;18.20;99.90;;;;;;6123197;23;20183;-91
2023/10/07 01:50:18;;;;;;;3.83;1.60;;;18.20;99.90;;;;;;6121882;23;20286;-91
2023/10/07 01:52:48;;;;;;;10.33;1.93;;;18.20;99.90;;;;;;6121505;23;20246;-91
2023/10/07 01:55:15;;;;;;;2.47;1.97;;;18.20;99.90;;;;;;6121994;23;20200;-91
2023/10/07 01:57:44;;;;;;;9.27;2.07;;;18.20;99.90;;;;;;6122005;23;20648;-90
2023/10/07 02:00:11;;;;;;;4.10;2.23;;;18.20;99.90;;;;;;6124378;23;20164;-91
2023/10/07 02:02:49;;;;;;;4.33;2.60;;;18.20;99.90;;;;;;6122422;23;20200;-91
2023/10/07 02:05:16;;;;;;;9.13;2.17;;;18.20;99.90;;;;;;6147352;23;20720;-92
2023/10/07 02:07:43;;;;;;;2.60;1.13;;;18.20;99.90;;;;;;6122061;23;20200;-93
2023/10/07 02:10:23;;;;;;;2.57;1.30;;;18.20;99.90;;;;;;6122180;23;20540;-93
2023/10/07 02:12:49;;;;;;;5.93;1.60;;;18.20;99.90;;;;;;6146258;23;20192;-93
2023/10/07 02:15:19;;;;;;;6.13;2.23;;;18.20;99.90;;;;;;6122499;23;20180;-91
2023/10/07 02:17:47;;;;;;;5.90;1.23;;;18.20;99.90;;;;;;6099298;23;20183;-93
2023/10/07 02:20:25;;;;;;;5.20;3.20;;;18.20;99.90;;;;;;6127128;23;20210;-92
2023/10/07 02:22:52;;;;;;;14.03;2.80;;;18.10;99.90;;;;;;6128449;23;20727;-92
2023/10/07 02:25:26;;;;;;;3.73;2.67;;;18.10;99.90;;;;;;6151143;23;20199;-91
2023/10/07 02:27:54;;;;;;;1.87;1.00;;;18.20;99.90;;;;;;6129841;23;20270;-93
2023/10/07 02:30:20;;;;;;;3.00;1.97;;;18.20;99.90;;;;;;6129020;23;20163;-93
2023/10/07 02:32:47;;;;;;;4.17;1.47;;;18.20;99.90;;;;;;6128465;23;20597;-92
2023/10/07 02:35:19;;;;;;;5.30;1.13;;;18.10;99.90;;;;;;6128633;23;20213;-93
2023/10/07 02:37:49;;;;;;;4.27;2.03;;;18.20;99.90;;;;;;6130672;23;21037;-92
2023/10/07 02:40:48;;;;;;;5.30;1.53;;;18.10;99.90;;;;;;6153136;23;20274;-93
2023/10/07 02:43:15;;;;;;;2.50;1.40;;;18.10;99.90;;;;;;6153315;23;20230;-93
2023/10/07 02:45:44;;;;;;;4.00;1.80;;;18.20;99.90;;;;;;6129288;23;20214;-93
2023/10/07 02:48:11;;;;;;;5.80;2.57;;;18.20;99.90;;;;;;6130614;23;20250;-94
2023/10/07 02:50:42;;;;;;;5.27;1.67;;;18.20;99.90;;;;;;6154222;23;20214;-93
2023/10/07 02:53:15;;;;;;;4.40;1.50;;;18.20;99.90;;;;;;6129688;23;20199;-93
2023/10/07 02:55:54;;;;;;;1.60;1.40;;;18.20;99.90;;;;;;6130575;23;20230;-93
2023/10/07 02:58:49;;;;;;;7.97;1.93;;;18.20;99.90;;;;;;6153588;23;20234;-93
2023/10/07 03:01:19;;;;;;;5.77;1.87;;;18.20;99.90;;;;;;6134797;23;20210;-92
2023/10/07 03:03:51;;;;;;;5.83;2.77;;;18.20;99.90;;;;;;6127441;23;20204;-92
2023/10/07 03:06:19;;;;;;;3.20;1.93;;;18.20;99.90;;;;;;6129915;23;20207;-92
2023/10/07 03:11:20;;;;;;;9.20;3.40;;;18.20;99.90;;;;;;6128027;23;20226;-92
2023/10/07 03:13:47;;;;;;;8.83;1.70;;;18.20;99.90;;;;;;6152528;23;20199;-93
2023/10/07 03:19:06;;;;;;;4.47;1.73;;;18.10;99.90;;;;;;6129742;23;20218;-92
2023/10/07 03:22:15;;;;;;;6.43;1.87;;;18.10;99.90;;;;;;6152306;23;20144;-90
2023/10/07 03:24:29;;;;;;;1.13;0.90;;;18.10;99.90;;;;;;6120369;23;20159;-90
2023/10/07 03:27:11;;;;;;;4.20;2.07;;;18.20;99.90;;;;;;6129296;23;20179;-91
2023/10/07 03:29:57;;;;;;;5.27;1.63;;;18.10;99.90;;;;;;6130186;23;20755;-91
2023/10/07 03:32:23;;;;;;;3.83;2.07;;;18.10;99.90;;;;;;6131366;23;20282;-91
2023/10/07 03:34:49;;;;;;;3.53;1.83;;;18.20;99.90;;;;;;6127769;23;20195;-91
2023/10/07 03:37:16;;;;;;;9.00;3.10;;;18.20;99.90;;;;;;6127880;23;20209;-91
2023/10/07 03:39:56;;;;;;;3.37;0.90;;;18.10;99.90;;;;;;6126674;23;20203;-91
2023/10/07 03:42:23;;;;;;;3.17;2.67;;;18.10;99.90;;;;;;6129606;23;20148;-90
2023/10/07 03:44:49;;;;;;;5.33;2.43;;;18.10;99.90;;;;;;6151783;23;20156;-91
2023/10/07 03:47:16;;;;;;;3.83;1.77;;;18.10;99.90;;;;;;6126393;23;20277;-90
2023/10/07 03:49:48;;;;;;;3.63;1.70;;;18.10;99.90;;;;;;6126338;23;20203;-90
2023/10/07 03:52:19;;;;;;;5.30;2.10;;;18.00;99.90;;;;;;6151677;23;20203;-92
2023/10/07 03:54:47;;;;;;;4.83;2.13;;;18.10;99.90;;;;;;6128085;23;20198;-91
2023/10/07 03:57:18;;;;;;;3.83;2.07;;;18.10;99.90;;;;;;6102906;23;20159;-91
2023/10/07 03:59:45;;;;;;;4.80;2.13;;;18.10;99.90;;;;;;6128314;23;20620;-90
2023/10/07 04:02:35;;;;;;;4.27;1.17;;;18.10;99.90;;;;;;6125770;23;20585;-90
2023/10/07 04:05:15;;;;;;;10.33;1.90;;;18.00;99.90;;;;;;6131777;23;20636;-92
2023/10/07 04:07:43;;;;;;;5.30;1.57;;;18.00;99.90;;;;;;6129804;23;20213;-91
2023/10/07 04:10:31;;;;;;;5.60;1.77;;;18.00;99.90;;;;;;6127409;23;20195;-91
2023/10/07 04:12:57;;;;;;;2.20;2.00;;;18.10;99.90;;;;;;6131832;23;20634;-91
2023/10/07 04:15:29;;;;;;;6.07;1.87;;;18.00;99.90;;;;;;6126849;23;20159;-91
2023/10/07 04:17:55;;;;;;;4.13;1.23;;;18.00;99.90;;;;;;6128400;23;20171;-91
2023/10/07 04:21:06;;;;;;;8.97;2.43;;;18.00;99.90;;;;;;6121203;23;20216;-91
2023/10/07 04:23:06;;;;;;;2.40;1.47;;;18.00;99.90;;;;;;6105975;23;20204;-90
2023/10/07 04:25:42;;;;;;;3.33;2.13;;;18.00;99.90;;;;;;6121729;23;20287;-92
2023/10/07 04:28:13;;;;;;;13.87;1.80;;;18.00;99.90;;;;;;6123425;23;20661;-90
2023/10/07 04:30:47;;;;;;;9.63;1.43;;;18.00;99.90;;;;;;6122088;23;20215;-91
2023/10/07 04:33:25;;;;;;;1.63;1.53;;;18.00;99.90;;;;;;6123315;23;20159;-91
2023/10/07 04:36:00;;;;;;;6.03;2.10;;;18.00;99.90;;;;;;6124101;23;20180;-90
2023/10/07 04:43:50;;;;;;;4.77;1.53;;;18.00;99.90;;;;;;6121606;23;20250;-90
2023/10/07 04:46:23;;;;;;;2.93;1.60;;;17.90;99.90;;;;;;6145888;23;20680;-91
2023/10/07 04:48:56;;;;;;;11.73;2.87;;;17.90;99.90;;;;;;6121590;23;20196;-90
2023/10/07 04:54:10;;;;;;;3.87;1.70;;;17.90;99.90;;;;;;6122944;23;20144;-90
2023/10/07 04:56:37;;;;;;;8.50;1.80;;;17.90;99.90;;;;;;6122140;23;20528;-91
2023/10/07 04:59:06;;;;;;;3.37;1.67;;;17.90;99.90;;;;;;6121172;23;20596;-92
2023/10/07 05:01:35;;;;;;;5.83;1.40;;;17.90;99.90;;;;;;6121669;23;20933;-90
2023/10/07 05:04:09;;;;;;;7.70;1.60;;;17.80;99.90;;;;;;6121192;23;20192;-91
2023/10/07 05:06:37;;;;;;;6.77;2.13;;;17.90;99.90;;;;;;6122366;23;20274;-91
2023/10/07 05:09:09;;;;;;;1.83;1.20;;;17.90;99.90;;;;;;6122401;23;20168;-92
2023/10/07 05:11:43;;;;;;;8.87;2.17;;;17.90;99.90;;;;;;6145519;23;20286;-91
2023/10/07 05:14:17;;;;;;;8.80;2.00;;;17.90;99.90;;;;;;6145778;23;20208;-92
2023/10/07 05:16:46;;;;;;;3.67;1.17;;;17.90;99.90;;;;;;6121908;23;20199;-92
2023/10/07 05:19:22;;;;;;;6.87;1.77;;;17.90;99.90;;;;;;6145258;23;20224;-91
2023/10/07 05:22:05;;;;;;;3.43;1.93;;;17.90;99.90;;;;;;6123060;23;20282;-91
2023/10/07 05:24:32;;;;;;;2.30;1.33;;;17.90;99.90;;;;;;6122340;23;20180;-91
2023/10/07 05:27:04;;;;;;;12.40;1.90;;;17.90;99.90;;;;;;6121367;23;20184;-91
2023/10/07 05:29:30;;;;;;;6.27;1.47;;;17.80;99.90;;;;;;6122365;23;20286;-91
2023/10/07 05:31:57;;;;;;;1.30;1.20;;;17.90;99.90;;;;;;6120393;23;20246;-91
2023/10/07 05:34:29;;;;;;;3.70;1.40;;;17.80;99.90;;;;;;6121708;23;20196;-92
2023/10/07 05:37:04;;;;;;;2.03;1.23;;;17.90;99.90;;;;;;6145232;23;20631;-92
2023/10/07 05:39:32;;;;;;;1.90;1.63;;;17.90;99.90;;;;;;6121290;23;20260;-91
2023/10/07 05:41:58;;;;;;;10.23;1.83;;;17.80;99.90;;;;;;6121554;23;20183;-91
2023/10/07 05:44:24;;;;;;;9.03;1.60;;;17.90;99.90;;;;;;6120509;23;20195;-91
2023/10/07 05:46:50;;;;;;;3.77;1.47;;;17.80;99.90;;;;;;6120030;23;20214;-91
2023/10/07 05:49:16;;;;;;;1.50;1.10;;;17.90;99.90;;;;;;6121032;23;20283;-92
2023/10/07 05:51:44;;;;;;;4.20;1.00;;;17.80;99.90;;;;;;6120571;23;20242;-91
2023/10/07 05:54:10;;;;;;;3.67;1.63;;;17.80;99.90;;;;;;6121562;23;20526;-92
2023/10/07 05:56:36;;;;;;;7.20;1.17;;;17.80;99.90;;;;;;6119619;23;20195;-92
2023/10/07 05:59:01;;;;;;;5.03;1.37;;;17.80;99.90;;;;;;6119973;23;20226;-91
2023/10/07 06:01:27;;;;;;;3.00;1.10;;;17.90;99.90;;;;;;6120421;23;20275;-92
2023/10/07 06:03:53;;;;;;;1.53;1.43;;;17.80;99.90;;;;;;6120502;23;20251;-91
2023/10/07 06:06:20;;;;;;;3.57;1.20;;;17.80;99.90;;;;;;6120549;23;20180;-90
2023/10/07 06:08:47;;;;;;;7.20;2.00;;;17.80;99.90;;;;;;6122173;23;20243;-94
2023/10/07 06:11:16;;;;;;;12.40;1.73;;;17.80;99.90;;;;;;6120660;23;20255;-93
2023/10/07 06:13:44;;;;;;;2.77;1.20;;;17.80;99.90;;;;;;6123026;23;20270;-91
2023/10/07 06:16:13;;;;;;;1.70;1.20;;;17.80;99.90;;;;;;6121061;23;20206;-91
2023/10/07 06:18:39;;;;;;;4.00;1.37;;;17.80;99.90;;;;;;6146066;23;20208;-91
2023/10/07 06:21:27;;;;;;;5.93;2.43;;;17.80;99.90;;;;;;6121061;23;20155;-90
2023/10/07 06:24:00;;;;;;;3.20;1.40;;;17.80;99.90;;;;;;6122056;23;20856;-90
2023/10/07 06:26:30;;;;;;;5.53;1.63;;;17.80;99.90;;;;;;6120141;23;20204;-88
2023/10/07 06:28:56;;;;;;;5.00;1.47;;;17.80;99.90;;;;;;6120681;23;20720;-92
2023/10/07 06:31:26;;;;;;;1.37;0.90;;;17.70;99.90;;;;;;6120507;23;20650;-90
2023/10/07 06:34:03;;;;;;;10.27;1.53;;;17.80;99.90;;;;;;6120833;23;20200;-90
2023/10/07 06:36:31;;;;;;;5.60;2.47;;;17.80;99.90;;;;;;6123102;23;20182;-90
2023/10/07 06:38:58;;;;;;;5.23;1.50;;;17.80;99.90;;;;;;6145109;23;20171;-90
2023/10/07 06:41:30;;;;;;;5.90;1.87;;;17.80;99.90;;;;;;6143860;23;20244;-90
2023/10/07 06:44:02;;;;;;;3.17;2.13;;;17.80;99.90;;;;;;6119835;23;20223;-88
2023/10/07 06:46:29;;;;;;;3.13;1.87;;;17.80;99.90;;;;;;6120720;23;20251;-90
2023/10/07 06:48:56;;;;;;;2.53;2.13;;;17.80;99.90;;;;;;6145563;23;20211;-90
2023/10/07 06:51:23;;;;;;;5.97;1.43;;;17.80;99.90;;;;;;6119852;23;20167;-90
2023/10/07 06:53:49;;;;;;;3.57;1.73;;;17.80;99.90;;;;;;6120835;23;20207;-90
2023/10/07 06:56:21;;;;;;;2.37;1.97;;;17.80;99.90;;;;;;6119599;23;20232;-90
2023/10/07 06:58:54;;;;;;;6.07;1.67;;;17.80;99.90;;;;;;6121567;23;21009;-91
2023/10/07 07:04:14;;;;;;;2.03;1.20;;;17.80;99.90;;;;;;6122264;23;20668;-93
2023/10/07 07:07:16;;;;;;;4.73;1.33;;;17.90;99.90;;;;;;6121108;23;20212;-92
2023/10/07 07:12:18;;;;;;;5.97;1.70;;;18.00;99.90;;;;;;6121618;23;20183;-91
2023/10/07 07:14:51;;;;;;;3.93;2.07;;;18.00;99.90;;;;;;6147617;23;20160;-94
2023/10/07 07:22:42;;;;;;;5.63;1.60;;;18.00;99.90;;;;;;6124230;23;20200;-93
2023/10/07 07:25:17;;;;;;;3.30;2.07;;;18.10;99.90;;;;;;6149084;23;20200;-94
2023/10/07 07:27:48;;;;;;;3.37;1.83;;;18.00;99.90;;;;;;6125891;23;20199;-93
2023/10/07 07:30:30;;;;;;;4.80;1.97;;;18.00;99.90;;;;;;6125651;23;20144;-93
2023/10/07 07:33:12;;;;;;;2.07;1.40;;;18.00;99.90;;;;;;6124428;23;20497;-93
2023/10/07 07:35:51;;;;;;;3.97;1.70;;;18.10;99.90;;;;;;6149738;23;20199;-94
2023/10/07 07:40:50;;;;;;;6.13;1.50;;;18.20;99.90;;;;;;6124283;23;20207;-94
2023/10/07 07:43:19;;;;;;;6.73;1.70;;;18.20;99.90;;;;;;6148490;23;20196;-94
2023/10/07 07:45:46;;;;;;;4.40;1.93;;;18.30;99.90;;;;;;6124086;23;20207;-93
2023/10/07 07:48:14;;;;;;;5.77;2.07;;;18.30;99.90;;;;;;6149742;23;20166;-93
2023/10/07 07:50:41;;;;;;;1.90;1.23;;;18.30;99.90;;;;;;6124120;23;20244;-94
2023/10/07 07:53:08;;;;;;;4.93;1.60;;;18.30;99.90;;;;;;6098845;23;20550;-93
2023/10/07 07:55:41;;;;;;;8.53;2.83;;;18.30;99.90;;;;;;6124031;23;20195;-91
2023/10/07 07:58:09;;;;;;;9.67;1.87;;;18.30;99.90;;;;;;6126024;23;20203;-94
2023/10/07 08:00:40;;;;;;;6.13;2.93;;;18.30;99.90;;;;;;6127422;23;21621;-92
2023/10/07 08:03:07;;;;;;;4.23;1.57;;;18.40;99.90;;;;;;6150166;23;20140;-91
2023/10/07 08:05:39;;;;;;;2.60;1.00;;;18.40;99.90;;;;;;6147036;23;20202;-92
2023/10/07 08:08:18;;;;;;;5.20;2.00;;;18.40;99.90;;;;;;6121747;23;20215;-93
2023/10/07 08:10:44;;;;;;;2.10;1.83;;;18.40;99.90;;;;;;6124567;23;20196;-91
2023/10/07 08:13:10;;;;;;;5.37;2.83;;;18.50;99.90;;;;;;6123668;23;20200;-93
2023/10/07 08:15:47;;;;;;;2.10;1.10;;;18.40;99.90;;;;;;6124129;23;20207;-93
2023/10/07 08:18:13;;;;;;;2.97;1.67;;;18.40;99.90;;;;;;6129481;23;20243;-91
2023/10/07 08:20:49;;;;;;;5.40;2.17;;;18.40;99.90;;;;;;6129890;23;20203;-93
2023/10/07 08:23:28;;;;;;;5.40;1.80;;;18.40;99.90;;;;;;6107998;23;20207;-91
2023/10/07 08:26:10;;;;;;;6.50;1.17;;;18.40;99.90;;;;;;6130809;23;20203;-94
2023/10/07 08:28:59;;;;;;;2.90;2.07;;;18.40;99.90;;;;;;6152972;23;20219;-95
2023/10/07 08:31:38;;;;;;;2.83;2.17;;;18.40;99.90;;;;;;6138357;23;20212;-92
2023/10/07 08:36:37;;;;;;;3.63;1.57;;;18.40;99.90;;;;;;6156776;23;20163;-93
2023/10/07 08:39:08;;;;;;;4.40;1.60;;;18.40;99.90;;;;;;6156050;23;20159;-93
2023/10/07 08:41:37;;;;;;;7.60;2.40;;;18.50;99.90;;;;;;6117958;23;20618;-94
2023/10/07 08:44:31;;;;;;;6.53;2.60;;;18.50;99.90;;;;;;6156778;23;20204;-93
2023/10/07 08:47:11;;;;;;;5.30;1.63;;;18.50;99.90;;;;;;6160847;23;20238;-92
2023/10/07 08:49:38;;;;;;;1.83;1.67;;;18.70;99.90;;;;;;6123315;23;20195;-94
2023/10/07 08:52:10;;;;;;;3.33;1.73;;;18.80;99.90;;;;;;6106115;23;20187;-93
2023/10/07 08:54:44;;;;;;;4.67;2.10;;;18.80;99.90;;;;;;6130041;23;20786;-93
2023/10/07 08:57:22;;;;;;;7.83;2.33;;;18.90;99.90;;;;;;6130253;23;20166;-93
2023/10/07 08:59:59;;;;;;;3.20;2.03;;;19.00;99.90;;;;;;6152704;23;20193;-91
2023/10/07 09:02:30;;;;;;;6.13;1.80;;;19.00;99.90;;;;;;6151246;23;20267;-92
2023/10/07 09:05:05;;;;;;;8.17;1.50;;;18.90;99.90;;;;;;6127549;23;20655;-92
2023/10/07 09:07:32;;;;;;;12.53;3.20;;;19.00;99.90;;;;;;6151606;23;20199;-92
2023/10/07 09:10:10;;;;;;;5.00;2.57;;;19.00;99.90;;;;;;6127859;23;20199;-93
2023/10/07 09:12:45;;;;;;;4.90;1.70;;;18.90;99.90;;;;;;6150925;23;20203;-92
2023/10/07 09:15:21;;;;;;;6.40;1.83;;;18.90;99.90;;;;;;6150999;23;20155;-95
2023/10/07 09:17:47;;;;;;;3.00;1.90;;;18.70;99.90;;;;;;6130558;23;20180;-94
2023/10/07 09:20:17;;;;;;;2.43;2.03;;;18.80;99.90;;;;;;6127865;23;20290;-94
2023/10/07 09:22:47;;;;;;;6.93;1.70;;;18.80;99.90;;;;;;6107106;23;20215;-92
2023/10/07 09:25:18;;;;;;;2.50;1.43;;;18.90;99.90;;;;;;6142927;23;20277;-93
2023/10/07 09:27:54;;;;;;;7.17;2.70;;;18.90;99.90;;;;;;6160907;23;20206;-92
2023/10/07 09:33:17;;;;;;;1.83;1.07;;;18.90;99.90;;;;;;6156057;23;20226;-92
2023/10/07 09:41:12;;;;;;;9.83;2.97;;;18.80;99.90;;;;;;6125997;23;20254;-90
2023/10/07 09:43:47;;;;;;;3.63;1.57;;;18.80;99.90;;;;;;6151137;23;20206;-92
2023/10/07 09:46:24;;;;;;;2.40;1.53;;;18.90;99.90;;;;;;6152158;23;20285;-94
2023/10/07 09:48:53;;;;;;;4.93;2.00;;;18.90;99.90;;;;;;6133721;23;20194;-93
2023/10/07 09:51:34;;;;;;;4.37;2.13;;;19.00;99.90;;;;;;6127222;23;20166;-93
2023/10/07 09:54:22;;;;;;;2.27;1.20;;;18.90;99.90;;;;;;6131165;23;20147;-92
2023/10/07 09:57:07;;;;;;;3.63;1.57;;;18.90;99.90;;;;;;6129063;23;20600;-92
2023/10/07 09:59:36;;;;;;;6.90;2.30;;;19.00;99.90;;;;;;6151982;23;20195;-91
2023/10/07 10:02:25;;;;;;;2.93;2.13;;;19.00;99.90;;;;;;6152836;23;20713;-93
2023/10/07 10:04:57;;;;;;;13.53;2.47;;;19.00;99.90;;;;;;6153682;23;20207;-93
2023/10/07 10:08:04;;;;;;;3.17;2.03;;;19.00;99.90;;;;;;6152099;23;20303;-93
2023/10/07 10:10:33;;;;;;;5.53;2.87;;;18.90;99.90;;;;;;6153924;23;20199;-94
2023/10/07 10:18:31;;;;;;;2.70;1.67;;;18.90;99.90;;;;;;6158922;23;20147;-93
2023/10/07 10:21:09;;;;;;;6.43;2.00;;;18.90;99.90;;;;;;6155972;23;20198;-93
2023/10/07 10:23:37;;;;;;;3.53;1.67;;;19.00;99.90;;;;;;6115675;23;20211;-92
2023/10/07 10:28:59;;;;;;;7.73;2.37;;;18.90;99.90;;;;;;6152826;23;20199;-91
2023/10/07 10:31:32;;;;;;;5.40;2.50;;;19.00;99.90;;;;;;6126662;23;20194;-93
2023/10/07 10:34:05;;;;;;;6.47;2.50;;;19.00;99.90;;;;;;6151272;23;20266;-92
2023/10/07 10:36:38;;;;;;;4.63;3.27;;;19.00;99.90;;;;;;6126884;23;20159;-92
2023/10/07 10:39:18;;;;;;;5.67;2.23;;;19.20;99.90;;;;;;6128361;23;20191;-90
2023/10/07 10:41:45;;;;;;;6.83;2.37;;;19.20;99.90;;;;;;6151863;23;20179;-92
2023/10/07 10:44:11;;;;;;;3.13;1.67;;;19.30;99.90;;;;;;6151408;23;20207;-91
2023/10/07 10:46:44;;;;;;;5.20;2.37;;;19.30;99.90;;;;;;6150723;23;20206;-91
2023/10/07 10:49:20;;;;;;;3.87;2.20;;;19.30;99.90;;;;;;6150888;23;20209;-89
2023/10/07 10:51:48;;;;;;;6.23;2.13;;;19.40;99.90;;;;;;6151654;23;20193;-90
2023/10/07 10:54:21;;;;;;;3.23;1.43;;;19.40;99.90;;;;;;6152299;23;20156;-89
2023/10/07 10:56:55;;;;;;;5.50;1.83;;;19.50;99.90;;;;;;6151897;23;20195;-89
2023/10/07 10:59:43;;;;;;;4.43;1.93;;;19.60;99.90;;;;;;6126930;23;20196;-89
2023/10/07 11:02:22;;;;;;;5.07;2.30;;;19.60;99.90;;;;;;6126020;23;20207;-89
2023/10/07 11:04:56;;;;;;;4.40;1.93;;;19.40;99.90;;;;;;6151562;23;20259;-88
2023/10/07 11:07:23;;;;;;;4.07;2.00;;;19.30;99.90;;;;;;6152695;23;20217;-88
2023/10/07 11:09:51;;;;;;;7.17;2.23;;;19.20;99.90;;;;;;6150467;23;20726;-87
2023/10/07 11:12:19;;;;;;;1.47;1.10;;;19.20;99.90;;;;;;6125313;23;20163;-89
2023/10/07 11:14:49;;;;;;;7.67;2.40;;;19.10;99.90;;;;;;6126516;23;20548;-88
2023/10/07 11:17:18;;;;;;;6.73;2.00;;;19.10;99.90;;;;;;6126304;23;20568;-88
2023/10/07 11:19:48;;;;;;;5.73;2.47;;;19.20;99.90;;;;;;6126675;23;20277;-88
2023/10/07 11:22:19;;;;;;;5.60;2.37;;;19.20;99.90;;;;;;6127293;23;20656;-88
2023/10/07 11:24:50;;;;;;;3.63;2.00;;;19.20;99.90;;;;;;6127796;23;20199;-88
2023/10/07 11:27:17;;;;;;;3.17;1.20;;;19.30;99.90;;;;;;6150398;23;20187;-89
2023/10/07 11:29:43;;;;;;;3.83;1.97;;;19.50;99.90;;;;;;6126372;23;20917;-87
2023/10/07 11:32:12;;;;;;;5.73;1.90;;;19.50;99.90;;;;;;6150104;23;20637;-88
2023/10/07 11:34:43;;;;;;;6.57;1.67;;;19.60;99.90;;;;;;6149771;23;20231;-89
2023/10/07 11:37:21;;;;;;;14.20;2.93;;;19.60;99.90;;;;;;6127041;23;20203;-89
2023/10/07 11:39:48;;;;;;;5.73;1.87;;;19.60;99.90;;;;;;6150237;23;20560;-87
2023/10/07 11:42:23;;;;;;;5.83;2.40;;;19.50;99.90;;;;;;6128715;23;20160;-90
2023/10/07 11:44:59;;;;;;;4.20;2.13;;;19.40;99.90;;;;;;6152096;23;20202;-91
2023/10/07 11:47:25;;;;;;;8.27;2.53;;;19.40;99.90;;;;;;6137333;23;20211;-92
2023/10/07 11:49:51;;;;;;;7.47;2.30;;;19.30;99.90;;;;;;6127970;23;20242;-89
2023/10/07 11:52:19;;;;;;;4.90;1.40;;;19.20;99.90;;;;;;6128703;23;20291;-90
2023/10/07 11:54:49;;;;;;;2.23;1.87;;;19.20;99.90;;;;;;6152966;23;20520;-93
2023/10/07 11:57:19;;;;;;;7.63;1.57;;;19.00;99.90;;;;;;6129696;23;20632;-93
2023/10/07 11:59:45;;;;;;;9.60;2.27;;;18.90;99.90;;;;;;6104697;23;20191;-93
2023/10/07 12:02:12;;;;;;;3.87;1.93;;;18.80;99.90;;;;;;6127262;23;20227;-90
2023/10/07 12:04:46;;;;;;;2.37;1.73;;;18.80;99.90;;;;;;6150917;23;20203;-91
2023/10/07 12:07:14;;;;;;;3.97;1.73;;;18.90;99.90;;;;;;6152516;23;20491;-92
2023/10/07 12:09:41;;;;;;;6.23;1.77;;;18.90;99.90;;;;;;6128033;23;20986;-91
2023/10/07 12:12:11;;;;;;;3.27;1.63;;;19.00;99.90;;;;;;6152733;23;20163;-91
2023/10/07 12:14:37;;;;;;;2.50;1.70;;;19.30;99.90;;;;;;6127113;23;20688;-90
2023/10/07 12:17:04;;;;;;;5.53;2.20;;;19.50;99.90;;;;;;6127176;23;20206;-90
2023/10/07 12:19:35;;;;;;;11.07;3.37;;;19.40;99.90;;;;;;6126645;23;20242;-91
2023/10/07 12:22:03;;;;;;;8.80;2.73;;;19.50;99.90;;;;;;6127031;23;20261;-91
2023/10/07 12:24:29;;;;;;;7.50;3.00;;;19.50;99.90;;;;;;6127206;23;20164;-90
2023/10/07 12:26:56;;;;;;;3.63;2.40;;;19.60;99.90;;;;;;6127237;23;20715;-91
2023/10/07 12:29:25;;;;;;;4.50;1.40;;;19.60;99.90;;;;;;6126551;23;20199;-88
2023/10/07 12:31:51;;;;;;;5.70;2.10;;;19.50;99.90;;;;;;6125993;23;20235;-88
2023/10/07 12:34:18;;;;;;;9.30;1.97;;;19.20;99.90;;;;;;6151098;23;20199;-88
2023/10/07 12:36:44;;;;;;;3.13;1.37;;;19.20;99.90;;;;;;6150364;23;20195;-89
2023/10/07 12:39:11;;;;;;;6.03;2.90;;;19.20;99.90;;;;;;6151078;23;20205;-88
2023/10/07 12:41:43;;;;;;;2.87;1.57;;;19.00;99.90;;;;;;6125721;23;20206;-87
2023/10/07 12:44:09;;;;;;;3.33;3.07;;;19.10;99.90;;;;;;6149906;23;20218;-88
2023/10/07 12:46:43;;;;;;;5.50;1.67;;;19.00;99.90;;;;;;6124617;23;20298;-89
2023/10/07 12:49:11;;;;;;;4.77;1.83;;;18.90;99.90;;;;;;6125672;23;20195;-89
2023/10/07 12:51:46;;;;;;;4.00;2.03;;;18.90;99.90;;;;;;6126471;23;20699;-89
2023/10/07 12:54:12;;;;;;;3.97;1.73;;;19.10;99.90;;;;;;6126724;23;20899;-90
2023/10/07 12:56:39;;;;;;;4.23;2.03;;;19.00;99.90;;;;;;6124982;23;20202;-89
2023/10/07 12:59:18;;;;;;;4.17;2.57;;;19.00;99.90;;;;;;6149124;23;20205;-88
2023/10/07 13:01:59;;;;;;;9.23;2.37;;;19.00;99.90;;;;;;6128033;23;20269;-89
2023/10/07 13:04:34;;;;;;;4.13;1.93;;;18.90;99.90;;;;;;6127069;23;20244;-90
2023/10/07 13:07:09;;;;;;;5.00;1.87;;;18.80;99.90;;;;;;6127049;23;20207;-88
2023/10/07 13:09:40;;;;;;;7.57;1.90;;;18.70;99.90;;;;;;6149165;23;20151;-88
2023/10/07 13:12:13;;;;;;;4.63;1.80;;;18.70;99.90;;;;;;6126800;23;20152;-89
2023/10/07 13:14:41;;;;;;;3.33;1.80;;;18.60;99.90;;;;;;6125879;23;20249;-89
2023/10/07 13:17:13;;;;;;;4.80;2.00;;;18.60;99.90;;;;;;6149199;23;20195;-87
2023/10/07 13:19:43;;;;;;;3.73;2.27;;;18.60;99.90;;;;;;6125270;23;20211;-87
2023/10/07 13:22:09;;;;;;;3.90;2.03;;;18.60;99.90;;;;;;6125983;23;20579;-88
2023/10/07 13:24:35;;;;;;;4.50;1.83;;;18.60;99.90;;;;;;6124250;23;20167;-88
2023/10/07 13:27:04;;;;;;;6.40;2.20;;;18.50;99.90;;;;;;6125577;23;20179;-86
2023/10/07 13:29:34;;;;;;;6.07;1.53;;;18.60;99.90;;;;;;6124639;23;20242;-87
2023/10/07 13:32:03;;;;;;;8.30;2.40;;;18.50;99.90;;;;;;6125746;23;20678;-87
2023/10/07 13:34:30;;;;;;;6.10;3.37;;;18.40;99.90;;;;;;6125742;23;20644;-87
2023/10/07 13:36:56;;;;;;;3.23;1.80;;;18.40;99.90;;;;;;6124796;23;20195;-87
2023/10/07 13:39:24;;;;;;;9.37;3.50;;;18.40;99.90;;;;;;6124220;23;20155;-87
2023/10/07 13:41:52;;;;;;;4.27;2.10;;;18.30;99.90;;;;;;6124801;23;20162;-88
2023/10/07 13:44:18;;;;;;;7.30;2.87;;;18.40;99.90;;;;;;6124134;23;20226;-88
2023/10/07 13:46:45;;;;;;;3.77;2.10;;;18.40;99.90;;;;;;6123445;23;20206;-86
2023/10/07 13:49:13;;;;;;;3.90;2.13;;;18.40;99.90;;;;;;6147635;23;20206;-88
2023/10/07 13:51:48;;;;;;;9.90;2.57;;;18.30;99.90;;;;;;6148381;23;20198;-89
2023/10/07 13:54:23;;;;;;;14.77;3.00;;;18.40;99.90;;;;;;6148254;23;20147;-87
2023/10/07 13:56:55;;;;;;;7.57;3.10;;;18.30;99.90;;;;;;6126266;23;20186;-87